Latest Weather Observations for Coonamble

IDN60801

Issued at 1:23 pm EST Thursday 25 April 2024 (issued every 10 minutes, with the page automatically refreshed every 10 minutes)

About weather observations | Map of weather stations | Latest weather observations for NSW | Other Formats
Station Details ID: 051161 Name: COONAMBLE AIRPORT AWS Lat: -30.98 Lon: 148.38 Height: 181.3 m
Data from the previous 72 hours. | See also: Recent months at Coonamble
Date/Time
EST
Temp
°C
App
Temp
°C
Dew
Point
°C
Rel
Hum
%
Delta-T
°C
Wind Press
QNH
hPa
Press
MSL
hPa
Rain since
9am
mm
Dir  Spd
km/h
Gust
km/h
Spd
kts
Gust
kts
25/01:00pm 18.6 12.6 3.3 36 7.2 SSW 24 35 13 19 1019.9 1019.4 0.0
25/12:30pm 18.3 12.2 4.8 41 6.5 SW 26 37 14 20 1020.2 1019.7 0.0
25/12:00pm 17.7 12.1 5.3 44 6.0 SSW 24 33 13 18 1020.7 1020.2 0.0
25/11:30am 17.1 11.9 5.4 46 5.7 SSW 22 32 12 17 1021.1 1020.6 0.0
25/11:00am 16.1 10.5 5.4 49 5.1 SSW 24 32 13 17 1021.5 1021.0 0.0
25/10:30am 15.4 10.2 5.3 51 4.8 SSW 22 30 12 16 1021.7 1021.2 0.0
25/10:00am 15.1 9.8 5.0 51 4.8 SSW 22 32 12 17 1021.6 1021.1 0.0
25/09:30am 14.0 8.2 4.6 53 4.4 SSW 24 32 13 17 1021.7 1021.2 0.0
25/09:00am 14.1 8.4 4.7 53 4.4 SSW 24 32 13 17 1021.7 1021.2 0.0
25/08:30am 12.9 7.9 4.6 57 3.8 SSW 20 28 11 15 1021.6 1021.1 0.0
25/08:00am 12.5 7.5 4.5 58 3.7 SSW 20 28 11 15 1021.4 1020.9 0.0
25/07:30am 11.6 6.5 4.3 61 3.3 SSW 20 30 11 16 1021.2 1020.7 0.0
25/07:00am 10.1 5.6 4.3 67 2.6 SSW 17 19 9 10 1020.7 1020.2 0.0
25/06:30am 9.5 4.9 3.7 67 2.6 SSW 17 24 9 13 1020.5 1020.0 0.0
25/06:00am 10.1 4.9 3.6 64 2.9 SSW 20 26 11 14 1020.1 1019.6 0.0
25/05:30am 10.2 4.6 3.5 63 3.0 SSW 22 28 12 15 1019.9 1019.4 0.0
25/05:00am 10.1 5.1 3.4 63 2.9 SSW 19 24 10 13 1019.8 1019.3 0.0
25/04:30am 10.6 5.4 3.4 61 3.2 SSW 20 26 11 14 1019.7 1019.2 0.0
25/04:00am 11.2 5.6 3.3 58 3.5 SSW 22 28 12 15 1019.6 1019.1 0.0
25/03:30am 11.5 6.3 3.3 57 3.6 SSW 20 28 11 15 1019.4 1018.9 0.0
25/03:00am 12.5 6.9 3.2 53 4.1 SSW 22 32 12 17 1019.7 1019.2 0.0
25/02:30am 13.0 7.4 3.4 52 4.3 S 22 32 12 17 1019.7 1019.2 0.0
25/02:00am 12.9 7.7 3.6 53 4.2 S 20 30 11 16 1020.0 1019.5 0.0
25/01:30am 13.1 7.9 3.5 52 4.3 S 20 30 11 16 1020.1 1019.6 0.0
25/01:00am 13.1 7.5 3.5 52 4.3 S 22 32 12 17 1020.2 1019.7 0.0
25/12:30am 13.7 8.1 3.5 50 4.6 S 22 30 12 16 1020.4 1019.9 0.0
25/12:00am 14.1 8.1 3.6 49 4.8 S 24 32 13 17 1020.6 1020.1 0.0
 
Date/Time
EST
Temp
°C
App
Temp
°C
Dew
Point
°C
Rel
Hum
%
Delta-T
°C
Wind Press
QNH
hPa
Press
MSL
hPa
Rain since
9am
mm
Dir  Spd
km/h
Gust
km/h
Spd
kts
Gust
kts
24/11:30pm 14.3 9.7 3.5 48 4.9 S 17 22 9 12 1020.8 1020.3 0.0
24/11:00pm 15.3 9.7 3.5 45 5.4 S 22 32 12 17 1020.6 1020.1 0.0
24/10:30pm 15.5 10.4 4.3 47 5.3 S 20 28 11 15 1020.8 1020.3 0.0
24/10:00pm 16.4 10.3 4.8 46 5.5 S 26 33 14 18 1020.6 1020.1 0.0
24/09:30pm 16.9 11.2 4.9 45 5.8 S 24 32 13 17 1020.1 1019.6 0.0
24/09:00pm 17.6 11.6 5.2 44 6.0 S 26 35 14 19 1020.0 1019.5 0.0
24/08:30pm 18.6 12.9 5.1 41 6.6 S 24 35 13 19 1019.7 1019.2 0.0
24/08:00pm 18.8 14.0 5.6 42 6.5 SSW 20 28 11 15 1019.9 1019.4 0.0
24/07:30pm 19.3 14.8 6.8 44 6.3 SSW 20 24 11 13 1019.4 1018.9 0.0
24/07:00pm 19.5 15.3 7.6 46 6.1 SSW 19 22 10 12 1019.1 1018.6 0.0
24/06:30pm 19.8 15.9 8.8 49 5.8 SSW 19 22 10 12 1018.6 1018.1 0.0
24/06:00pm 20.1 17.5 9.4 50 5.7 SSW 13 17 7 9 1018.2 1017.7 0.0
24/05:30pm 22.3 18.7 9.8 45 6.8 SSW 19 22 10 12 1017.9 1017.4 0.0
24/05:00pm 23.4 20.4 10.5 44 7.2 SW 17 24 9 13 1017.5 1016.9 0.0
24/04:30pm 24.5 21.3 10.0 40 8.0 SW 17 24 9 13 1017.4 1016.8 0.0
24/04:00pm 25.4 21.1 9.3 36 8.8 WSW 22 30 12 16 1017.4 1016.8 0.0
24/03:30pm 25.4 21.5 9.3 36 8.9 SW 20 30 11 16 1017.4 1016.8 0.0
24/03:00pm 26.3 22.1 9.6 35 9.3 WSW 22 32 12 17 1017.5 1016.9 0.0
24/02:30pm 26.0 21.3 9.4 35 9.2 WSW 24 32 13 17 1017.6 1017.0 0.0
24/02:00pm 26.3 23.3 10.5 37 8.9 WSW 17 28 9 15 1017.7 1017.1 0.0
24/01:30pm 25.2 21.5 10.3 39 8.3 WSW 20 28 11 15 1017.8 1017.3 0.0
24/01:00pm 24.1 20.1 11.8 46 7.0 SW 24 28 13 15 1018.1 1017.6 0.0
24/12:30pm 24.0 21.3 12.9 50 6.5 SW 19 26 10 14 1018.4 1017.9 0.0
24/12:00pm 24.6 21.5 12.2 46 7.1 W 20 30 11 16 1018.8 1018.3 0.0
24/11:30am 24.9 21.1 13.5 49 6.7 NW 26 32 14 17 1019.1 1018.6 0.0
24/11:00am 24.8 21.4 13.7 50 6.5 NW 24 32 13 17 1019.5 1019.0 0.0
24/10:30am 23.9 21.5 14.3 55 5.7 NNW 20 30 11 16 1019.6 1019.1 0.0
24/10:00am 22.8 20.3 14.1 58 5.1 N 20 30 11 16 1019.9 1019.4 0.0
24/09:30am 21.3 19.9 14.5 65 4.0 N 15 20 8 11 1020.3 1019.8 0.0
24/09:00am 19.5 18.2 13.7 69 3.3 N 13 17 7 9 1020.4 1019.9 0.0
24/08:30am 18.7 18.2 13.8 73 2.8 N 9 17 5 9 1020.4 1019.9 0.0
24/08:00am 17.4 18.3 13.9 80 2.0 N 2 6 1 3 1020.5 1020.0 0.0
24/07:30am 16.6 16.8 14.1 85 1.4 ENE 6 7 3 4 1020.0 1019.5 0.0
24/07:00am 16.0 15.9 13.3 84 1.5 NNE 6 9 3 5 1019.8 1019.3 0.0
24/06:30am 15.7 15.0 13.2 85 1.4 NNE 9 11 5 6 1019.5 1019.0 0.0
24/06:00am 15.0 14.1 12.7 86 1.3 NE 9 11 5 6 1019.6 1019.1 0.0
24/05:30am 14.9 14.5 12.4 85 1.4 SE 6 9 3 5 1019.5 1019.0 0.0
24/05:00am 14.7 13.2 11.8 83 1.6 E 11 19 6 10 1019.3 1018.8 0.0
24/04:30am 14.5 13.9 12.2 86 1.3 ESE 7 11 4 6 1019.3 1018.8 0.0
24/04:00am 13.7 12.8 11.2 85 1.3 E 7 9 4 5 1019.2 1018.7 0.0
24/03:30am 14.2 13.4 11.7 85 1.4 E 7 9 4 5 1019.2 1018.7 0.0
24/03:00am 14.1 14.5 11.1 82 1.6 CALM 0 0 0 0 1019.4 1018.9 0.0
24/02:30am 14.7 14.0 11.5 81 1.7 NE 6 9 3 5 1019.4 1018.9 0.0
24/02:00am 14.9 13.7 11.5 80 1.8 NE 9 15 5 8 1019.7 1019.2 0.0
24/01:30am 14.9 13.3 11.7 81 1.7 NE 11 15 6 8 1020.0 1019.5 0.0
24/01:00am 14.4 13.1 11.2 81 1.7 ENE 9 11 5 6 1020.2 1019.7 0.0
24/12:30am 13.9 12.1 10.7 81 1.7 ENE 11 15 6 8 1020.2 1019.7 0.0
24/12:00am 14.1 12.6 10.7 80 1.8 ENE 9 9 5 5 1020.3 1019.8 0.0
 
Date/Time
EST
Temp
°C
App
Temp
°C
Dew
Point
°C
Rel
Hum
%
Delta-T
°C
Wind Press
QNH
hPa
Press
MSL
hPa
Rain since
9am
mm
Dir  Spd
km/h
Gust
km/h
Spd
kts
Gust
kts
23/11:30pm 14.7 13.9 10.9 78 2.0 ENE 6 7 3 4 1020.3 1019.8 0.0
23/11:00pm 14.6 14.6 11.0 79 1.9 ENE 2 9 1 5 1020.4 1019.9 0.0
23/10:30pm 14.8 15.1 11.0 78 2.0 CALM 0 0 0 0 1020.9 1020.4 0.0
23/10:00pm 15.1 15.3 10.7 75 2.3 CALM 0 0 0 0 1021.0 1020.5 0.0
23/09:30pm 16.2 16.6 11.2 72 2.7 CALM 0 0 0 0 1020.7 1020.2 0.0
23/09:00pm 16.8 16.3 10.9 68 3.2 NE 4 9 2 5 1020.4 1019.9 0.0
23/08:30pm 17.5 17.9 11.3 67 3.4 CALM 0 0 0 0 1020.5 1020.0 0.0
23/08:00pm 18.2 18.5 11.0 63 3.9 CALM 0 0 0 0 1020.4 1019.9 0.0
23/07:30pm 18.4 18.6 10.5 60 4.3 CALM 0 6 0 3 1020.5 1020.0 0.0
23/07:00pm 19.8 18.7 10.5 55 5.1 N 7 7 4 4 1020.3 1019.8 0.0
23/06:30pm 21.7 20.3 10.8 50 6.0 NNE 9 11 5 6 1020.2 1019.7 0.0
23/06:00pm 21.6 20.1 10.4 49 6.1 NNE 9 11 5 6 1020.1 1019.6 0.0
23/05:30pm 23.1 21.5 10.2 44 7.1 NNE 9 11 5 6 1020.0 1019.5 0.0
23/05:00pm 24.7 22.6 9.8 39 8.2 NNE 11 17 6 9 1019.9 1019.4 0.0
23/04:30pm 25.5 22.9 9.3 36 8.9 N 13 17 7 9 1020.1 1019.6 0.0
23/04:00pm 25.7 23.1 9.5 36 8.9 NNW 13 20 7 11 1020.3 1019.8 0.0
23/03:30pm 26.1 23.7 9.9 36 9.0 N 13 22 7 12 1020.5 1020.0 0.0
23/03:00pm 26.3 25.1 9.6 35 9.3 N 6 11 3 6 1020.6 1020.1 0.0
23/02:30pm 26.8 24.5 10.5 36 9.2 NE 13 19 7 10 1021.0 1020.5 0.0
23/02:00pm 26.3 23.9 10.0 36 9.1 NW 13 20 7 11 1021.3 1020.8 0.0
23/01:30pm 26.3 24.8 10.5 37 8.9 N 9 17 5 9 1021.6 1021.1 0.0
23/01:00pm 25.9 24.1 10.9 39 8.5 NNE 11 19 6 10 1022.1 1021.6 0.0
23/12:30pm 25.4 23.2 10.8 40 8.2 NE 13 19 7 10 1022.8 1022.4 0.0
23/12:00pm 25.0 23.6 12.2 44 7.4 N 11 17 6 9 1023.5 1023.0 0.0
23/11:30am 23.8 21.0 11.5 46 7.0 N 17 24 9 13 1024.1 1023.6 0.0
23/11:00am 23.8 21.4 12.8 50 6.3 N 17 24 9 13 1024.8 1024.3 0.0
23/10:30am 22.7 21.0 12.3 52 5.9 N 13 22 7 12 1025.2 1024.7 0.0
23/10:00am 21.9 20.0 11.9 53 5.6 NNE 13 20 7 11 1025.5 1025.0 0.0
23/09:30am 20.6 18.2 11.5 56 5.1 N 15 22 8 12 1025.7 1025.2 0.0
23/09:00am 20.0 17.6 11.5 58 4.7 NNE 15 20 8 11 1025.8 1025.3 0.0
23/08:30am 18.8 16.9 11.9 64 3.8 NE 13 17 7 9 1025.8 1025.3 0.0
23/08:00am 16.9 15.4 12.0 73 2.7 ENE 11 13 6 7 1025.7 1025.2 0.0
23/07:30am 14.6 12.5 11.0 79 1.9 NE 13 17 7 9 1025.4 1024.9 0.0
23/07:00am 13.2 10.9 10.6 84 1.4 NE 13 15 7 8 1025.3 1024.8 0.0
23/06:30am 12.3 9.9 10.2 87 1.1 NE 13 17 7 9 1025.1 1024.6 0.0
23/06:00am 12.0 9.9 9.9 87 1.1 ENE 11 13 6 7 1025.0 1024.5 0.0
23/05:30am 12.3 9.9 10.0 86 1.2 ENE 13 13 7 7 1024.9 1024.4 0.0
23/05:00am 12.7 11.1 10.1 84 1.3 ENE 9 13 5 7 1024.7 1024.2 0.0
23/04:30am 13.1 10.8 10.3 83 1.5 NE 13 17 7 9 1024.3 1023.8 0.0
23/04:00am 13.3 11.0 10.3 82 1.6 ENE 13 15 7 8 1023.9 1023.4 0.0
23/03:30am 13.8 11.9 10.4 80 1.8 ENE 11 15 6 8 1023.9 1023.4 0.0
23/03:00am 14.1 11.9 10.9 81 1.7 ENE 13 19 7 10 1023.8 1023.3 0.0
23/02:30am 14.1 11.9 10.7 80 1.8 ENE 13 17 7 9 1023.9 1023.4 0.0
23/02:00am 14.5 12.3 10.9 79 1.9 ENE 13 17 7 9 1024.1 1023.6 0.0
23/01:30am 14.8 12.7 11.0 78 2.0 ENE 13 19 7 10 1024.2 1023.7 0.0
23/01:00am 14.5 12.4 11.1 80 1.8 ENE 13 17 7 9 1024.2 1023.7 0.0
23/12:30am 14.2 12.3 10.6 79 1.9 E 11 15 6 8 1024.1 1023.6 0.0
23/12:00am 14.6 13.1 10.4 76 2.2 E 9 15 5 8 1024.0 1023.5 0.0
 
Date/Time
EST
Temp
°C
App
Temp
°C
Dew
Point
°C
Rel
Hum
%
Delta-T
°C
Wind Press
QNH
hPa
Press
MSL
hPa
Rain since
9am
mm
Dir  Spd
km/h
Gust
km/h
Spd
kts
Gust
kts
22/11:30pm 15.1 13.5 10.3 73 2.5 E 9 13 5 7 1024.0 1023.5 0.0
22/11:00pm 15.5 14.0 10.5 72 2.6 E 9 13 5 7 1024.1 1023.6 0.0
22/10:30pm 14.0 12.8 10.2 78 2.0 ESE 7 9 4 5 1024.2 1023.7 0.0
22/10:00pm 16.5 15.3 10.4 67 3.2 E 7 11 4 6 1024.2 1023.7 0.0
22/09:30pm 16.4 14.8 11.6 73 2.6 SE 11 15 6 8 1024.3 1023.8 0.0
22/09:00pm 16.4 14.7 11.3 72 2.8 SSE 11 13 6 7 1024.3 1023.8 0.0
22/08:30pm 16.3 14.6 9.7 65 3.5 SE 9 11 5 6 1024.1 1023.6 0.0
22/08:00pm 17.2 15.1 9.9 62 3.9 ESE 11 13 6 7 1024.0 1023.5 0.0
22/07:30pm 16.7 16.0 8.7 59 4.1 S 2 6 1 3 1023.8 1023.3 0.0
22/07:00pm 17.6 16.1 8.5 55 4.7 S 6 7 3 4 1023.5 1023.0 0.0
22/06:30pm 18.6 16.9 8.3 51 5.4 S 7 9 4 5 1023.2 1022.7 0.0
22/06:00pm 20.3 18.2 8.3 46 6.3 S 9 11 5 6 1022.9 1022.5 0.0
22/05:30pm 21.8 18.9 8.0 41 7.3 S 13 13 7 7 1022.7 1022.3 0.0
22/05:00pm 23.8 19.9 7.0 34 8.8 S 17 20 9 11 1022.7 1022.3 0.0
22/04:30pm 24.9 21.9 9.2 37 8.6 SSE 15 19 8 10 1022.7 1022.3 0.0
22/04:00pm 25.4 21.8 8.4 34 9.2 SSE 17 24 9 13 1022.8 1022.4 0.0
22/03:30pm 25.8 23.8 8.8 34 9.3 SE 9 19 5 10 1022.9 1022.5 0.0
22/03:00pm 25.9 23.1 8.4 33 9.5 E 13 20 7 11 1023.2 1022.7 0.0
22/02:30pm 25.8 22.6 8.3 33 9.5 SE 15 20 8 11 1023.4 1022.9 0.0
22/02:00pm 26.0 24.6 9.4 35 9.1 ENE 7 15 4 8 1023.7 1023.2 0.0
22/01:30pm 25.5 22.8 8.9 35 9.1 E 13 22 7 12 1024.0 1023.5 0.0

Other formats

Comma delimited format used in spreadsheet applications
http://www.bom.gov.au/fwo/IDN60801/IDN60801.95718.axf

JavaScript Object Notation format (JSON) in row-major order
http://www.bom.gov.au/fwo/IDN60801/IDN60801.95718.json

Data quality

Most of these data are generated automatically and are frequently updated. Quality checks on data are not normally performed. It is possible for incorrect values to appear. Refer to information at About Latest Weather Observations and please check the disclaimer before using these data.